Time;durP1;ratioP1;P1;durP2;ratioP2;P2;SDS_P1;SDS_P2;PMS_P1;PMS_P2;Temp;Humidity;BMP_temperature;BMP_pressure;BME280_temperature;BME280_humidity;BME280_pressure;Samples;Min_cycle;Max_cycle;Signal;HPM_P1;HPM_P2
2024/01/02 00:00:06;;;;;;;5.63;4.50;;;;;;;;;;5114041;28;20384;-81
2024/01/02 00:02:33;;;;;;;5.13;4.20;;;;;;;;;;5120555;28;20373;-81
2024/01/02 00:04:59;;;;;;;5.30;3.90;;;;;;;;;;5128125;28;20900;-82
2024/01/02 00:07:25;;;;;;;6.38;4.00;;;;;;;;;;5127645;28;20380;-82
2024/01/02 00:09:51;;;;;;;4.22;3.78;;;;;;;;;;5129008;28;20817;-82
2024/01/02 00:12:17;;;;;;;4.65;4.18;;;;;;;;;;5128524;28;20806;-82
2024/01/02 00:14:43;;;;;;;4.30;3.60;;;;;;;;;;5128293;28;20380;-82
2024/01/02 00:17:09;;;;;;;4.00;3.60;;;;;;;;;;5127660;28;20395;-82
2024/01/02 00:19:35;;;;;;;4.80;3.80;;;;;;;;;;5108865;28;20886;-82
2024/01/02 00:22:01;;;;;;;4.22;3.60;;;;;;;;;;5125814;28;20483;-82
2024/01/02 00:24:27;;;;;;;4.20;3.78;;;;;;;;;;5126265;28;20438;-82
2024/01/02 00:26:54;;;;;;;5.40;4.15;;;;;;;;;;5126731;28;20376;-82
2024/01/02 00:29:19;;;;;;;5.28;4.00;;;;;;;;;;5125697;28;20364;-81
2024/01/02 00:31:46;;;;;;;4.82;4.32;;;;;;;;;;5125902;28;20376;-82
2024/01/02 00:34:13;;;;;;;5.60;4.25;;;;;;;;;;5125763;28;20376;-82
2024/01/02 00:36:39;;;;;;;4.05;3.75;;;;;;;;;;5125216;28;20380;-82
2024/01/02 00:39:08;;;;;;;5.35;3.70;;;;;;;;;;5125311;28;20369;-82
2024/01/02 00:41:34;;;;;;;5.13;4.20;;;;;;;;;;5124549;28;20373;-82
2024/01/02 00:44:00;;;;;;;4.28;3.88;;;;;;;;;;5123741;28;20742;-82
2024/01/02 00:46:26;;;;;;;4.47;4.05;;;;;;;;;;5124736;28;20379;-82
2024/01/02 00:48:52;;;;;;;4.30;3.90;;;;;;;;;;5124832;28;20383;-82
2024/01/02 00:51:18;;;;;;;5.65;4.78;;;;;;;;;;5120708;28;20850;-82
2024/01/02 00:53:44;;;;;;;4.60;4.20;;;;;;;;;;5103718;28;20389;-82
2024/01/02 00:56:10;;;;;;;4.60;3.95;;;;;;;;;;5103206;28;20457;-81
2024/01/02 00:58:36;;;;;;;4.30;3.90;;;;;;;;;;5103431;28;20725;-81
2024/01/02 01:01:02;;;;;;;4.25;3.70;;;;;;;;;;5103214;28;20378;-81
2024/01/02 01:03:28;;;;;;;4.85;4.00;;;;;;;;;;5102133;28;20374;-82
2024/01/02 01:05:54;;;;;;;4.85;4.20;;;;;;;;;;5103352;28;20845;-81
2024/01/02 01:08:20;;;;;;;4.55;4.15;;;;;;;;;;5102204;28;20435;-82
2024/01/02 01:10:46;;;;;;;5.35;4.20;;;;;;;;;;5102375;28;20370;-81
2024/01/02 01:13:12;;;;;;;5.23;4.13;;;;;;;;;;5101849;28;20881;-82
2024/01/02 01:15:39;;;;;;;4.88;4.13;;;;;;;;;;5102255;28;20409;-82
2024/01/02 01:18:05;;;;;;;4.45;3.72;;;;;;;;;;5101714;28;20370;-82
2024/01/02 01:20:31;;;;;;;4.10;3.70;;;;;;;;;;5102129;28;20417;-81
2024/01/02 01:22:57;;;;;;;4.35;3.75;;;;;;;;;;5101484;28;20401;-82
2024/01/02 01:25:23;;;;;;;4.22;3.83;;;;;;;;;;5100982;28;20393;-82
2024/01/02 01:27:49;;;;;;;5.45;4.25;;;;;;;;;;5101038;28;20413;-81
2024/01/02 01:30:15;;;;;;;4.35;3.88;;;;;;;;;;5101334;28;20393;-81
2024/01/02 01:32:41;;;;;;;5.40;4.30;;;;;;;;;;5100883;28;20378;-82
2024/01/02 01:35:07;;;;;;;6.72;4.38;;;;;;;;;;5100501;28;20386;-81
2024/01/02 01:37:33;;;;;;;4.40;4.00;;;;;;;;;;5100648;28;20374;-81
2024/01/02 01:40:00;;;;;;;4.10;3.75;;;;;;;;;;5100240;28;20781;-81
2024/01/02 01:42:26;;;;;;;4.90;4.40;;;;;;;;;;5081980;28;20390;-81
2024/01/02 01:44:52;;;;;;;4.68;4.13;;;;;;;;;;5100823;28;20410;-81
2024/01/02 01:47:18;;;;;;;4.87;4.37;;;;;;;;;;5100039;28;20836;-81
2024/01/02 01:49:44;;;;;;;5.03;4.35;;;;;;;;;;5100375;28;20378;-82
2024/01/02 01:52:11;;;;;;;4.60;3.38;;;;;;;;;;5081962;28;20390;-82
2024/01/02 01:54:37;;;;;;;5.38;2.70;;;;;;;;;;5100232;28;20432;-81
2024/01/02 01:57:04;;;;;;;4.22;2.47;;;;;;;;;;5103770;28;20380;-81
2024/01/02 01:59:31;;;;;;;5.78;2.42;;;;;;;;;;5102279;28;20380;-82
2024/01/02 02:01:57;;;;;;;4.65;2.10;;;;;;;;;;5119776;28;20447;-81
2024/01/02 02:04:24;;;;;;;4.68;2.38;;;;;;;;;;5120438;28;20432;-81
2024/01/02 02:06:50;;;;;;;3.78;2.55;;;;;;;;;;5119754;28;20846;-82
2024/01/02 02:09:17;;;;;;;5.50;3.15;;;;;;;;;;5119586;28;20387;-81
2024/01/02 02:11:44;;;;;;;6.40;3.50;;;;;;;;;;5119846;28;20528;-82
2024/01/02 02:14:10;;;;;;;6.38;3.33;;;;;;;;;;5119401;28;20383;-81
2024/01/02 02:16:37;;;;;;;5.72;3.00;;;;;;;;;;5100599;28;20421;-82
2024/01/02 02:19:02;;;;;;;5.38;2.88;;;;;;;;;;5119594;28;20376;-81
2024/01/02 02:21:29;;;;;;;4.30;2.42;;;;;;;;;;5115496;28;20429;-81
2024/01/02 02:23:54;;;;;;;3.77;2.60;;;;;;;;;;5114093;28;20587;-81
2024/01/02 02:26:20;;;;;;;2.67;2.30;;;;;;;;;;5114955;28;20425;-81
2024/01/02 02:28:46;;;;;;;2.90;2.15;;;;;;;;;;5097480;28;20385;-81
2024/01/02 02:31:12;;;;;;;4.60;2.80;;;;;;;;;;5115958;28;21123;-81
2024/01/02 02:33:38;;;;;;;3.03;2.35;;;;;;;;;;5118724;28;20408;-80
2024/01/02 02:36:05;;;;;;;2.90;1.90;;;;;;;;;;5118707;28;20776;-81
2024/01/02 02:38:31;;;;;;;3.20;2.03;;;;;;;;;;5118066;28;20376;-81
2024/01/02 02:40:57;;;;;;;3.22;1.92;;;;;;;;;;5117331;28;20388;-81
2024/01/02 02:43:23;;;;;;;2.60;2.05;;;;;;;;;;5117641;28;20440;-81
2024/01/02 02:45:49;;;;;;;4.50;2.40;;;;;;;;;;5099128;28;20445;-81
2024/01/02 02:48:15;;;;;;;3.20;2.28;;;;;;;;;;5114975;28;20384;-81
2024/01/02 02:50:41;;;;;;;5.95;2.67;;;;;;;;;;5117014;28;20846;-81
2024/01/02 02:53:07;;;;;;;4.27;2.30;;;;;;;;;;5099114;28;20389;-82
2024/01/02 02:55:33;;;;;;;4.82;2.45;;;;;;;;;;5116799;28;20385;-81
2024/01/02 02:57:59;;;;;;;7.78;2.60;;;;;;;;;;5107377;28;20393;-81
2024/01/02 03:00:25;;;;;;;4.32;2.33;;;;;;;;;;5116656;28;20715;-81
2024/01/02 03:02:51;;;;;;;3.70;2.33;;;;;;;;;;5117373;28;20373;-81
2024/01/02 03:05:17;;;;;;;5.57;2.57;;;;;;;;;;5098750;28;20425;-81
2024/01/02 03:07:43;;;;;;;4.88;2.60;;;;;;;;;;5117577;28;20372;-81
2024/01/02 03:10:17;;;;;;;4.00;2.60;;;;;;;;;;5116532;28;20368;-82
2024/01/02 03:12:43;;;;;;;5.50;3.50;;;;;;;;;;5116067;28;20482;-81
2024/01/02 03:15:09;;;;;;;5.70;3.50;;;;;;;;;;5117007;28;20434;-81
2024/01/02 03:17:35;;;;;;;6.65;4.13;;;;;;;;;;5116074;28;20385;-81
2024/01/02 03:20:02;;;;;;;7.10;3.70;;;;;;;;;;5115956;28;20399;-81
2024/01/02 03:22:28;;;;;;;6.57;3.50;;;;;;;;;;5116445;28;20420;-82
2024/01/02 03:24:54;;;;;;;6.07;3.28;;;;;;;;;;5116516;28;20427;-80
2024/01/02 03:27:20;;;;;;;6.93;2.85;;;;;;;;;;5118176;28;20419;-81
2024/01/02 03:29:46;;;;;;;3.25;1.80;;;;;;;;;;5118778;28;20380;-81
2024/01/02 03:32:12;;;;;;;3.92;1.83;;;;;;;;;;5119073;28;20894;-82
2024/01/02 03:34:39;;;;;;;3.65;1.80;;;;;;;;;;5123339;28;20385;-82
2024/01/02 03:37:05;;;;;;;2.10;1.40;;;;;;;;;;5122976;28;20476;-82
2024/01/02 03:39:31;;;;;;;2.30;1.47;;;;;;;;;;5123944;28;20398;-81
2024/01/02 03:41:57;;;;;;;2.67;1.58;;;;;;;;;;5105251;28;20389;-82
2024/01/02 03:44:23;;;;;;;1.83;1.30;;;;;;;;;;5124170;28;20931;-81
2024/01/02 03:46:49;;;;;;;2.25;1.45;;;;;;;;;;5123847;28;20846;-82
2024/01/02 03:49:15;;;;;;;3.00;1.50;;;;;;;;;;5123962;28;20381;-81
2024/01/02 03:51:41;;;;;;;4.00;2.08;;;;;;;;;;5123898;28;20694;-81
2024/01/02 03:54:07;;;;;;;2.75;1.63;;;;;;;;;;5124751;28;20414;-81
2024/01/02 03:56:33;;;;;;;4.18;1.58;;;;;;;;;;5124060;28;20398;-82
2024/01/02 03:58:59;;;;;;;3.22;1.58;;;;;;;;;;5123668;28;20383;-81
2024/01/02 04:01:25;;;;;;;2.58;1.60;;;;;;;;;;5124388;28;20380;-81
2024/01/02 04:03:51;;;;;;;2.45;1.70;;;;;;;;;;5123040;28;20432;-81
2024/01/02 04:06:18;;;;;;;3.78;1.50;;;;;;;;;;5122251;28;20734;-82
2024/01/02 04:08:44;;;;;;;1.33;1.00;;;;;;;;;;5122119;28;20379;-83
2024/01/02 04:11:13;;;;;;;1.90;1.10;;;;;;;;;;5122337;28;20364;-81
2024/01/02 04:13:39;;;;;;;2.30;1.20;;;;;;;;;;5123523;28;20775;-82
2024/01/02 04:16:05;;;;;;;2.00;1.10;;;;;;;;;;5123246;28;20387;-81
2024/01/02 04:18:31;;;;;;;3.00;1.20;;;;;;;;;;5103928;28;20408;-81
2024/01/02 04:20:57;;;;;;;2.58;1.17;;;;;;;;;;5123087;28;20403;-81
2024/01/02 04:23:23;;;;;;;1.85;1.13;;;;;;;;;;5124765;28;20392;-81
2024/01/02 04:25:49;;;;;;;1.80;1.10;;;;;;;;;;5124002;28;20400;-81
2024/01/02 04:28:15;;;;;;;1.60;1.10;;;;;;;;;;5122061;28;20400;-81
2024/01/02 04:30:41;;;;;;;1.38;0.98;;;;;;;;;;5123518;28;20893;-82
2024/01/02 04:33:07;;;;;;;2.15;1.13;;;;;;;;;;5130928;28;20448;-82
2024/01/02 04:35:33;;;;;;;1.67;0.80;;;;;;;;;;5128580;28;20391;-82
2024/01/02 04:37:59;;;;;;;1.40;0.88;;;;;;;;;;5127787;28;20376;-82
2024/01/02 04:40:25;;;;;;;1.33;0.90;;;;;;;;;;5127250;28;20812;-82
2024/01/02 04:42:51;;;;;;;1.30;0.90;;;;;;;;;;5122837;28;20411;-81
2024/01/02 04:45:17;;;;;;;1.02;0.80;;;;;;;;;;5125589;28;20764;-82
2024/01/02 04:47:43;;;;;;;3.13;0.80;;;;;;;;;;5108177;28;20464;-81
2024/01/02 04:50:12;;;;;;;1.48;0.80;;;;;;;;;;5126340;28;20373;-82
2024/01/02 04:52:38;;;;;;;1.10;0.70;;;;;;;;;;5124983;28;20384;-82
2024/01/02 04:55:04;;;;;;;1.55;0.70;;;;;;;;;;5123685;28;20387;-82
2024/01/02 04:57:30;;;;;;;2.53;0.80;;;;;;;;;;5106934;28;20939;-82
2024/01/02 04:59:56;;;;;;;0.85;0.80;;;;;;;;;;5125216;28;20380;-81
2024/01/02 05:02:25;;;;;;;2.53;0.93;;;;;;;;;;5125323;28;20437;-82
2024/01/02 05:04:51;;;;;;;1.58;0.90;;;;;;;;;;5123991;28;20388;-82
2024/01/02 05:07:17;;;;;;;1.38;0.80;;;;;;;;;;5124709;28;20380;-81
2024/01/02 05:09:43;;;;;;;1.13;0.80;;;;;;;;;;5122506;28;20846;-82
2024/01/02 05:12:10;;;;;;;1.23;0.80;;;;;;;;;;5119092;28;20858;-81
2024/01/02 05:14:35;;;;;;;1.83;0.90;;;;;;;;;;5120143;28;20383;-81
2024/01/02 05:17:01;;;;;;;1.87;0.97;;;;;;;;;;5103945;28;20463;-81
2024/01/02 05:19:28;;;;;;;1.33;0.80;;;;;;;;;;5122743;28;20785;-81
2024/01/02 05:21:54;;;;;;;1.85;0.70;;;;;;;;;;5123846;28;20419;-82
2024/01/02 05:24:20;;;;;;;1.08;0.90;;;;;;;;;;5123634;28;20404;-83
2024/01/02 05:26:46;;;;;;;1.10;0.60;;;;;;;;;;5103547;28;20398;-83
2024/01/02 05:29:12;;;;;;;1.20;0.70;;;;;;;;;;5105124;28;20424;-81
2024/01/02 05:31:38;;;;;;;0.95;0.60;;;;;;;;;;5123627;28;20379;-81
2024/01/02 05:34:04;;;;;;;1.50;0.70;;;;;;;;;;5122138;28;20376;-82
2024/01/02 05:36:30;;;;;;;1.05;0.68;;;;;;;;;;5122878;28;20372;-81
2024/01/02 05:38:56;;;;;;;1.30;0.73;;;;;;;;;;5122075;28;20440;-82
2024/01/02 05:41:22;;;;;;;1.13;0.60;;;;;;;;;;5123892;28;20849;-82
2024/01/02 05:43:48;;;;;;;0.88;0.82;;;;;;;;;;5123099;28;20443;-81
2024/01/02 05:46:14;;;;;;;1.25;0.50;;;;;;;;;;5122981;28;20833;-81
2024/01/02 05:48:40;;;;;;;1.10;0.68;;;;;;;;;;5122370;28;20433;-82
2024/01/02 05:51:06;;;;;;;1.00;0.60;;;;;;;;;;5121245;28;20368;-81
2024/01/02 05:53:32;;;;;;;0.82;0.57;;;;;;;;;;5121081;28;20392;-82
2024/01/02 05:55:58;;;;;;;1.40;0.60;;;;;;;;;;5121870;28;20380;-80
2024/01/02 05:58:24;;;;;;;1.10;0.70;;;;;;;;;;5120066;28;20387;-80
2024/01/02 06:00:50;;;;;;;0.70;0.50;;;;;;;;;;5120555;28;20379;-80
2024/01/02 06:03:16;;;;;;;1.55;0.70;;;;;;;;;;5120786;28;20451;-82
2024/01/02 06:05:42;;;;;;;1.55;0.50;;;;;;;;;;5120572;28;20439;-80
2024/01/02 06:08:08;;;;;;;0.88;0.63;;;;;;;;;;5122668;28;20834;-81
2024/01/02 06:10:34;;;;;;;0.73;0.70;;;;;;;;;;5121696;28;20380;-81
2024/01/02 06:13:00;;;;;;;1.10;0.70;;;;;;;;;;5101942;28;20364;-81
2024/01/02 06:15:26;;;;;;;1.52;0.80;;;;;;;;;;5119847;28;20817;-81
2024/01/02 06:17:52;;;;;;;0.93;0.60;;;;;;;;;;5119558;28;20377;-81
2024/01/02 06:20:18;;;;;;;2.87;0.67;;;;;;;;;;5120286;28;20394;-80
2024/01/02 06:22:44;;;;;;;0.73;0.50;;;;;;;;;;5119755;28;20881;-80
2024/01/02 06:25:10;;;;;;;1.20;0.60;;;;;;;;;;5119492;28;20508;-80
2024/01/02 06:27:38;;;;;;;0.70;0.50;;;;;;;;;;5119647;28;20412;-81
2024/01/02 06:30:04;;;;;;;1.10;0.57;;;;;;;;;;5119758;28;20964;-80
2024/01/02 06:32:31;;;;;;;0.55;0.50;;;;;;;;;;5120135;28;20788;-81
2024/01/02 06:34:57;;;;;;;1.20;0.60;;;;;;;;;;5100049;28;20436;-80
2024/01/02 06:37:24;;;;;;;1.80;0.55;;;;;;;;;;5118862;28;20395;-81
2024/01/02 06:39:50;;;;;;;1.13;0.70;;;;;;;;;;5118194;28;20368;-81
2024/01/02 06:42:16;;;;;;;0.88;0.50;;;;;;;;;;5119043;28;20419;-81
2024/01/02 06:44:43;;;;;;;1.20;0.50;;;;;;;;;;5117811;28;20424;-80
2024/01/02 06:47:09;;;;;;;1.23;0.55;;;;;;;;;;5104863;28;20376;-81
2024/01/02 06:49:35;;;;;;;1.00;0.60;;;;;;;;;;5098146;28;20437;-81
2024/01/02 06:52:01;;;;;;;1.10;0.50;;;;;;;;;;5099768;28;20779;-81
2024/01/02 06:54:27;;;;;;;0.80;0.50;;;;;;;;;;5098342;28;20378;-81
2024/01/02 06:56:53;;;;;;;0.45;0.40;;;;;;;;;;5097630;28;20536;-81
2024/01/02 06:59:19;;;;;;;0.65;0.50;;;;;;;;;;5097257;28;20384;-80
2024/01/02 07:01:46;;;;;;;0.60;0.50;;;;;;;;;;5095910;28;20374;-80
2024/01/02 07:04:12;;;;;;;0.70;0.40;;;;;;;;;;5097007;28;20401;-80
2024/01/02 07:06:38;;;;;;;0.43;0.40;;;;;;;;;;5096229;28;20381;-80
2024/01/02 07:09:04;;;;;;;0.30;0.30;;;;;;;;;;5098796;28;20386;-81
2024/01/02 07:11:30;;;;;;;0.52;0.35;;;;;;;;;;5100099;28;20428;-80
2024/01/02 07:13:56;;;;;;;0.70;0.38;;;;;;;;;;5082246;28;20378;-80
2024/01/02 07:16:22;;;;;;;0.30;0.20;;;;;;;;;;5100639;28;20907;-80
2024/01/02 07:18:48;;;;;;;0.63;0.32;;;;;;;;;;5100318;28;20381;-81
2024/01/02 07:21:14;;;;;;;0.25;0.25;;;;;;;;;;5100081;28;20523;-81
2024/01/02 07:23:40;;;;;;;0.70;0.30;;;;;;;;;;5099399;28;20402;-81
2024/01/02 07:26:06;;;;;;;0.30;0.22;;;;;;;;;;5099907;28;20450;-80
2024/01/02 07:28:32;;;;;;;0.40;0.30;;;;;;;;;;5099403;28;21091;-81
2024/01/02 07:30:58;;;;;;;1.90;0.30;;;;;;;;;;5099645;28;20416;-82
2024/01/02 07:33:24;;;;;;;0.35;0.35;;;;;;;;;;5099242;28;20386;-80
2024/01/02 07:35:50;;;;;;;0.50;0.30;;;;;;;;;;5099665;28;20722;-81
2024/01/02 07:38:16;;;;;;;1.55;0.30;;;;;;;;;;5099293;28;20393;-81
2024/01/02 07:40:42;;;;;;;0.20;0.20;;;;;;;;;;5099564;28;20808;-81
2024/01/02 07:43:08;;;;;;;0.30;0.20;;;;;;;;;;5082076;28;20415;-81
2024/01/02 07:45:34;;;;;;;0.47;0.25;;;;;;;;;;5099797;28;20488;-81
2024/01/02 07:48:00;;;;;;;1.13;0.40;;;;;;;;;;5100248;28;20781;-81
2024/01/02 07:50:26;;;;;;;0.40;0.30;;;;;;;;;;5099882;28;20385;-80
2024/01/02 07:52:52;;;;;;;0.85;0.50;;;;;;;;;;5101096;28;20386;-81
2024/01/02 07:55:18;;;;;;;0.20;0.20;;;;;;;;;;5099786;28;20822;-81
2024/01/02 07:57:43;;;;;;;0.30;0.30;;;;;;;;;;5102093;28;20393;-80
2024/01/02 08:00:10;;;;;;;0.25;0.22;;;;;;;;;;5100170;28;20485;-80
2024/01/02 08:02:36;;;;;;;0.55;0.30;;;;;;;;;;5097374;28;20380;-81
2024/01/02 08:05:02;;;;;;;0.40;0.30;;;;;;;;;;5114171;28;20739;-81
2024/01/02 08:07:28;;;;;;;0.50;0.30;;;;;;;;;;5115888;28;20380;-82
2024/01/02 08:09:54;;;;;;;0.50;0.40;;;;;;;;;;5115759;28;20364;-81
2024/01/02 08:12:22;;;;;;;0.50;0.20;;;;;;;;;;5117218;28;20406;-81
2024/01/02 08:14:48;;;;;;;0.40;0.30;;;;;;;;;;5118240;28;20415;-81
2024/01/02 08:17:15;;;;;;;0.60;0.47;;;;;;;;;;5116845;28;20377;-80
2024/01/02 08:19:41;;;;;;;0.33;0.30;;;;;;;;;;5116305;28;20380;-81
2024/01/02 08:22:07;;;;;;;0.20;0.20;;;;;;;;;;5118899;28;20449;-82
2024/01/02 08:24:33;;;;;;;0.60;0.40;;;;;;;;;;5123713;28;20404;-83
2024/01/02 08:27:00;;;;;;;0.40;0.30;;;;;;;;;;5121888;28;20377;-81
2024/01/02 08:29:26;;;;;;;1.17;0.30;;;;;;;;;;5120085;28;20371;-80
2024/01/02 08:31:52;;;;;;;0.20;0.20;;;;;;;;;;5118093;28;20365;-81
2024/01/02 08:34:18;;;;;;;0.30;0.20;;;;;;;;;;5118658;28;20386;-81
2024/01/02 08:36:44;;;;;;;0.50;0.30;;;;;;;;;;5119584;28;20850;-81
2024/01/02 08:39:10;;;;;;;0.20;0.20;;;;;;;;;;5119362;28;20402;-81
2024/01/02 08:41:36;;;;;;;0.30;0.30;;;;;;;;;;5118381;28;20439;-81
2024/01/02 08:44:02;;;;;;;0.40;0.20;;;;;;;;;;5118798;28;20404;-81
2024/01/02 08:46:29;;;;;;;0.40;0.30;;;;;;;;;;5117984;28;20384;-81
2024/01/02 08:48:55;;;;;;;0.30;0.30;;;;;;;;;;5118359;28;20446;-80
2024/01/02 08:51:21;;;;;;;0.25;0.20;;;;;;;;;;5116658;28;20459;-81
2024/01/02 08:53:47;;;;;;;0.30;0.30;;;;;;;;;;5118884;28;20407;-82
2024/01/02 08:56:13;;;;;;;0.82;0.30;;;;;;;;;;5122137;28;20387;-81
2024/01/02 08:58:39;;;;;;;2.10;0.35;;;;;;;;;;5122006;28;20379;-81
2024/01/02 09:01:05;;;;;;;0.67;0.30;;;;;;;;;;5122391;28;20920;-81
2024/01/02 09:03:31;;;;;;;0.20;0.20;;;;;;;;;;5127639;28;20385;-82
2024/01/02 09:05:57;;;;;;;0.50;0.30;;;;;;;;;;5127146;28;20429;-82
2024/01/02 09:08:23;;;;;;;0.30;0.20;;;;;;;;;;5127272;28;20365;-82
2024/01/02 09:10:49;;;;;;;0.20;0.20;;;;;;;;;;5126425;28;20727;-82
2024/01/02 09:13:15;;;;;;;0.22;0.22;;;;;;;;;;5126507;28;20414;-82
2024/01/02 09:15:41;;;;;;;0.60;0.60;;;;;;;;;;5124638;28;20380;-81
2024/01/02 09:18:08;;;;;;;0.80;0.40;;;;;;;;;;5118190;28;20385;-82
2024/01/02 09:20:34;;;;;;;0.57;0.50;;;;;;;;;;5118316;28;20429;-81
2024/01/02 09:23:00;;;;;;;0.73;0.50;;;;;;;;;;5120420;28;20765;-82
2024/01/02 09:25:27;;;;;;;0.40;0.40;;;;;;;;;;5124339;28;20396;-81
2024/01/02 09:27:58;;;;;;;2.97;2.03;;;;;;;;;;5124302;28;20372;-83
2024/01/02 09:30:24;;;;;;;0.90;0.50;;;;;;;;;;5124541;28;20391;-80
2024/01/02 09:32:50;;;;;;;0.30;0.23;;;;;;;;;;5100049;28;20369;-81
2024/01/02 09:35:17;;;;;;;1.30;0.68;;;;;;;;;;5119612;28;20798;-82
2024/01/02 09:37:43;;;;;;;0.40;0.30;;;;;;;;;;5121095;28;20382;-80
2024/01/02 09:40:28;;;;;;;0.30;0.30;;;;;;;;;;5119947;28;20674;-80
2024/01/02 09:43:05;;;;;;;1.45;0.30;;;;;;;;;;5118714;28;20388;-81
2024/01/02 09:45:38;;;;;;;0.30;0.20;;;;;;;;;;5118846;28;20408;-81
2024/01/02 09:48:21;;;;;;;0.20;0.20;;;;;;;;;;5119468;28;20376;-80
2024/01/02 09:50:59;;;;;;;0.32;0.22;;;;;;;;;;5119020;28;20394;-82
2024/01/02 09:53:28;;;;;;;0.75;0.40;;;;;;;;;;5118491;28;20376;-81
2024/01/02 09:56:03;;;;;;;0.30;0.30;;;;;;;;;;5118336;28;20391;-81
2024/01/02 09:58:45;;;;;;;0.60;0.30;;;;;;;;;;5117975;28;20442;-81
2024/01/02 10:01:22;;;;;;;0.30;0.30;;;;;;;;;;5119514;28;20376;-81
2024/01/02 10:04:07;;;;;;;0.23;0.23;;;;;;;;;;5118181;28;20383;-81
2024/01/02 10:06:51;;;;;;;0.40;0.30;;;;;;;;;;5118848;28;20368;-82
2024/01/02 10:09:36;;;;;;;0.35;0.28;;;;;;;;;;5121826;28;20391;-82
2024/01/02 10:12:20;;;;;;;0.20;0.20;;;;;;;;;;5122528;28;20513;-82
2024/01/02 10:15:00;;;;;;;0.20;0.20;;;;;;;;;;5121923;28;20375;-82
2024/01/02 10:17:53;;;;;;;0.60;0.20;;;;;;;;;;5123599;28;21228;-82
2024/01/02 10:20:38;;;;;;;0.70;0.20;;;;;;;;;;5123410;28;20381;-83
2024/01/02 10:23:23;;;;;;;0.50;0.20;;;;;;;;;;5122580;28;20388;-83
2024/01/02 10:25:53;;;;;;;0.30;0.20;;;;;;;;;;5121511;28;20400;-83
2024/01/02 10:28:20;;;;;;;0.20;0.20;;;;;;;;;;5121538;28;20368;-82
2024/01/02 10:30:56;;;;;;;0.70;0.20;;;;;;;;;;5121931;28;21144;-82
2024/01/02 10:33:24;;;;;;;0.40;0.40;;;;;;;;;;5121479;28;20380;-82
2024/01/02 10:35:54;;;;;;;0.30;0.30;;;;;;;;;;5121853;28;20372;-82
2024/01/02 10:38:27;;;;;;;0.40;0.30;;;;;;;;;;5122180;28;20474;-83
2024/01/02 10:41:11;;;;;;;0.52;0.20;;;;;;;;;;5121901;28;20460;-81
2024/01/02 10:43:50;;;;;;;0.63;0.40;;;;;;;;;;5120595;28;20372;-81
2024/01/02 10:46:30;;;;;;;0.25;0.25;;;;;;;;;;5120853;28;20384;-82
2024/01/02 10:49:18;;;;;;;0.30;0.30;;;;;;;;;;5119301;28;20889;-82
2024/01/02 10:51:48;;;;;;;0.22;0.20;;;;;;;;;;5117792;28;20380;-83
2024/01/02 10:54:32;;;;;;;0.20;0.20;;;;;;;;;;5116289;28;20380;-83
2024/01/02 10:57:03;;;;;;;0.70;0.30;;;;;;;;;;5117436;28;20368;-83
2024/01/02 10:59:35;;;;;;;0.13;0.10;;;;;;;;;;5118199;28;20384;-83
2024/01/02 11:02:10;;;;;;;0.20;0.20;;;;;;;;;;5118669;28;20368;-82
2024/01/02 11:04:36;;;;;;;0.40;0.20;;;;;;;;;;5119126;28;20435;-83
2024/01/02 11:07:06;;;;;;;0.50;0.30;;;;;;;;;;5119803;28;20437;-83
2024/01/02 11:09:52;;;;;;;0.30;0.30;;;;;;;;;;5119271;28;20411;-82
2024/01/02 11:12:18;;;;;;;0.80;0.80;;;;;;;;;;5118161;28;20400;-81
2024/01/02 11:14:45;;;;;;;0.90;0.20;;;;;;;;;;5118935;28;20381;-82
2024/01/02 11:17:13;;;;;;;0.40;0.30;;;;;;;;;;5116619;28;20380;-81
2024/01/02 11:19:53;;;;;;;0.32;0.22;;;;;;;;;;5116241;28;20380;-81
2024/01/02 11:22:24;;;;;;;0.20;0.20;;;;;;;;;;5118003;28;20396;-83
2024/01/02 11:24:53;;;;;;;0.70;0.55;;;;;;;;;;5119329;28;20403;-83
2024/01/02 11:27:23;;;;;;;0.20;0.20;;;;;;;;;;5120111;28;20399;-82
2024/01/02 11:29:51;;;;;;;0.55;0.28;;;;;;;;;;5119045;28;20864;-82
2024/01/02 11:32:19;;;;;;;0.30;0.30;;;;;;;;;;5121260;28;20414;-82
2024/01/02 11:34:45;;;;;;;0.20;0.20;;;;;;;;;;5120244;28;20435;-81
2024/01/02 11:37:20;;;;;;;0.40;0.30;;;;;;;;;;5102714;28;20447;-81
2024/01/02 11:40:00;;;;;;;2.80;0.30;;;;;;;;;;5119133;28;20454;-82
2024/01/02 11:42:28;;;;;;;1.02;0.50;;;;;;;;;;5120157;28;20799;-81
2024/01/02 11:45:06;;;;;;;0.30;0.30;;;;;;;;;;5118534;28;20404;-81
2024/01/02 11:47:43;;;;;;;0.40;0.30;;;;;;;;;;5118883;28;20372;-81
2024/01/02 11:50:09;;;;;;;0.30;0.30;;;;;;;;;;5117831;28;20376;-83
2024/01/02 11:52:45;;;;;;;0.30;0.30;;;;;;;;;;5117013;28;20372;-81
2024/01/02 11:55:13;;;;;;;0.35;0.30;;;;;;;;;;5118901;28;20846;-82
2024/01/02 11:57:42;;;;;;;0.40;0.20;;;;;;;;;;5121281;28;20376;-82
2024/01/02 12:00:10;;;;;;;0.57;0.50;;;;;;;;;;5120992;28;20451;-81
2024/01/02 12:02:57;;;;;;;0.40;0.40;;;;;;;;;;5121606;28;20868;-83
2024/01/02 12:05:26;;;;;;;0.40;0.30;;;;;;;;;;5121345;28;20468;-82
2024/01/02 12:07:54;;;;;;;0.30;0.30;;;;;;;;;;5121402;28;20780;-82
2024/01/02 12:10:23;;;;;;;0.35;0.32;;;;;;;;;;5122162;28;20733;-82
2024/01/02 12:12:49;;;;;;;0.22;0.20;;;;;;;;;;5120733;28;20386;-81
2024/01/02 12:15:15;;;;;;;0.40;0.40;;;;;;;;;;5119560;28;20797;-81
2024/01/02 12:17:49;;;;;;;0.73;0.30;;;;;;;;;;5119454;28;20375;-82
2024/01/02 12:20:17;;;;;;;1.00;0.40;;;;;;;;;;5119331;28;20372;-81
2024/01/02 12:22:43;;;;;;;0.20;0.20;;;;;;;;;;5119912;28;20411;-82
2024/01/02 12:25:11;;;;;;;0.60;0.50;;;;;;;;;;5120260;28;20869;-82
2024/01/02 12:27:38;;;;;;;0.38;0.30;;;;;;;;;;5102810;28;20437;-82
2024/01/02 12:30:05;;;;;;;0.20;0.20;;;;;;;;;;5121395;28;20862;-81
2024/01/02 12:32:49;;;;;;;0.25;0.25;;;;;;;;;;5120025;28;20396;-82
2024/01/02 12:35:35;;;;;;;0.50;0.45;;;;;;;;;;5119912;28;20395;-81
2024/01/02 12:38:05;;;;;;;0.52;0.30;;;;;;;;;;5100962;28;20412;-82
2024/01/02 12:40:33;;;;;;;0.70;0.30;;;;;;;;;;5120162;28;20461;-82
2024/01/02 12:42:59;;;;;;;0.47;0.40;;;;;;;;;;5118226;28;20377;-82
2024/01/02 12:45:33;;;;;;;0.30;0.30;;;;;;;;;;5119347;28;20404;-82
2024/01/02 12:48:02;;;;;;;0.20;0.20;;;;;;;;;;5119483;28;20368;-81
2024/01/02 12:50:29;;;;;;;0.60;0.30;;;;;;;;;;5110657;28;20371;-83
2024/01/02 12:53:12;;;;;;;0.50;0.50;;;;;;;;;;5099792;28;20377;-81
2024/01/02 12:55:43;;;;;;;0.90;0.40;;;;;;;;;;5099103;28;20385;-82
2024/01/02 12:58:10;;;;;;;1.00;0.47;;;;;;;;;;5080657;28;20448;-82
2024/01/02 13:00:37;;;;;;;0.60;0.47;;;;;;;;;;5099128;28;20461;-81
2024/01/02 13:03:03;;;;;;;0.80;0.60;;;;;;;;;;5098815;28;20487;-82
2024/01/02 13:05:29;;;;;;;0.50;0.35;;;;;;;;;;5098709;28;20937;-82
2024/01/02 13:07:56;;;;;;;0.50;0.40;;;;;;;;;;5099328;28;20374;-81
2024/01/02 13:10:24;;;;;;;0.70;0.40;;;;;;;;;;5098750;28;20392;-82
2024/01/02 13:12:53;;;;;;;0.68;0.52;;;;;;;;;;5098502;28;20374;-81
2024/01/02 13:15:21;;;;;;;0.50;0.40;;;;;;;;;;5100669;28;20385;-82
2024/01/02 13:17:47;;;;;;;0.43;0.40;;;;;;;;;;5099546;28;20382;-82
2024/01/02 13:20:13;;;;;;;0.50;0.30;;;;;;;;;;5099602;28;20738;-81
2024/01/02 13:22:40;;;;;;;0.75;0.30;;;;;;;;;;5100046;28;20394;-82
2024/01/02 13:25:17;;;;;;;0.30;0.20;;;;;;;;;;5101198;28;20398;-82
2024/01/02 13:27:43;;;;;;;0.40;0.30;;;;;;;;;;5101241;28;20381;-83
2024/01/02 13:30:09;;;;;;;0.40;0.30;;;;;;;;;;5101372;28;20386;-82
2024/01/02 13:32:35;;;;;;;0.20;0.20;;;;;;;;;;5100437;28;20370;-82
2024/01/02 13:35:19;;;;;;;0.37;0.20;;;;;;;;;;5100393;28;20449;-81
2024/01/02 13:37:47;;;;;;;0.30;0.30;;;;;;;;;;5098196;28;20788;-83
2024/01/02 13:40:21;;;;;;;0.70;0.38;;;;;;;;;;5098848;28;20374;-81
2024/01/02 13:42:53;;;;;;;0.50;0.40;;;;;;;;;;5095680;28;20803;-82
2024/01/02 13:45:26;;;;;;;0.88;0.50;;;;;;;;;;5094256;28;20405;-82
2024/01/02 13:47:57;;;;;;;0.50;0.50;;;;;;;;;;5095502;28;20417;-82
2024/01/02 13:50:34;;;;;;;0.30;0.30;;;;;;;;;;5095955;28;20454;-81
2024/01/02 13:53:07;;;;;;;0.40;0.40;;;;;;;;;;5096009;28;20427;-82
2024/01/02 13:55:34;;;;;;;0.52;0.40;;;;;;;;;;5096260;28;20423;-81
2024/01/02 13:58:26;;;;;;;0.50;0.35;;;;;;;;;;5096576;28;20378;-81
2024/01/02 14:00:52;;;;;;;0.70;0.50;;;;;;;;;;5093792;28;20879;-81
2024/01/02 14:03:19;;;;;;;0.60;0.38;;;;;;;;;;5117287;28;20383;-82
2024/01/02 14:05:58;;;;;;;0.47;0.40;;;;;;;;;;5118184;28;20399;-81
2024/01/02 14:08:31;;;;;;;0.35;0.35;;;;;;;;;;5117323;28;20372;-82
2024/01/02 14:11:00;;;;;;;0.70;0.40;;;;;;;;;;5117256;28;20388;-81
2024/01/02 14:13:31;;;;;;;0.50;0.40;;;;;;;;;;5098451;28;20415;-81
2024/01/02 14:15:58;;;;;;;1.03;0.80;;;;;;;;;;5117366;28;20881;-82
2024/01/02 14:18:26;;;;;;;0.40;0.40;;;;;;;;;;5116065;28;20407;-82
2024/01/02 14:21:01;;;;;;;0.77;0.20;;;;;;;;;;5118496;28;20376;-82
2024/01/02 14:23:41;;;;;;;1.10;0.55;;;;;;;;;;5100371;28;20416;-82
2024/01/02 14:26:24;;;;;;;0.90;0.70;;;;;;;;;;5102600;28;20404;-82
2024/01/02 14:28:57;;;;;;;1.10;0.70;;;;;;;;;;5119947;28;20402;-83
2024/01/02 14:31:33;;;;;;;0.88;0.60;;;;;;;;;;5119185;28;20368;-83
2024/01/02 14:34:19;;;;;;;0.88;0.57;;;;;;;;;;5117471;28;20427;-82
2024/01/02 14:37:06;;;;;;;1.05;0.65;;;;;;;;;;5098908;28;20392;-82
2024/01/02 14:39:32;;;;;;;0.70;0.60;;;;;;;;;;5115919;28;20384;-81
2024/01/02 14:42:08;;;;;;;0.93;0.70;;;;;;;;;;5115923;28;20433;-82
2024/01/02 14:44:44;;;;;;;1.30;1.00;;;;;;;;;;5115698;28;20469;-82
2024/01/02 14:47:46;;;;;;;1.00;0.82;;;;;;;;;;5117265;28;20384;-81
2024/01/02 14:50:17;;;;;;;1.33;1.10;;;;;;;;;;5022853;28;20400;-82